sensor_id;sensor_type;location;lat;lon;timestamp;P1;durP1;ratioP1;P2;durP2;ratioP2
34585;SDS011;20816;50.950;11.108;2022-10-31T00:01:10;5.13;;;1.70;;
34585;SDS011;20816;50.950;11.108;2022-10-31T00:03:38;3.87;;;1.30;;
34585;SDS011;20816;50.950;11.108;2022-10-31T00:06:05;4.20;;;1.10;;
34585;SDS011;20816;50.950;11.108;2022-10-31T00:08:31;8.37;;;2.33;;
34585;SDS011;20816;50.950;11.108;2022-10-31T00:10:58;2.67;;;1.13;;
34585;SDS011;20816;50.950;11.108;2022-10-31T00:13:25;7.00;;;1.27;;
34585;SDS011;20816;50.950;11.108;2022-10-31T00:15:51;5.13;;;1.57;;
34585;SDS011;20816;50.950;11.108;2022-10-31T00:18:18;4.43;;;1.13;;
34585;SDS011;20816;50.950;11.108;2022-10-31T00:20:44;1.90;;;1.37;;
34585;SDS011;20816;50.950;11.108;2022-10-31T00:23:11;5.53;;;1.80;;
34585;SDS011;20816;50.950;11.108;2022-10-31T00:25:38;3.70;;;1.80;;
34585;SDS011;20816;50.950;11.108;2022-10-31T00:28:06;4.33;;;1.53;;
34585;SDS011;20816;50.950;11.108;2022-10-31T00:30:34;7.40;;;1.87;;
34585;SDS011;20816;50.950;11.108;2022-10-31T00:33:02;5.73;;;1.17;;
34585;SDS011;20816;50.950;11.108;2022-10-31T00:35:30;3.43;;;1.03;;
34585;SDS011;20816;50.950;11.108;2022-10-31T00:37:57;2.63;;;1.17;;
34585;SDS011;20816;50.950;11.108;2022-10-31T00:40:23;2.30;;;1.40;;
34585;SDS011;20816;50.950;11.108;2022-10-31T00:42:50;2.77;;;1.50;;
34585;SDS011;20816;50.950;11.108;2022-10-31T00:45:17;3.03;;;1.20;;
34585;SDS011;20816;50.950;11.108;2022-10-31T00:47:44;4.50;;;2.47;;
34585;SDS011;20816;50.950;11.108;2022-10-31T00:50:10;2.93;;;1.70;;
34585;SDS011;20816;50.950;11.108;2022-10-31T00:52:37;4.17;;;2.13;;
34585;SDS011;20816;50.950;11.108;2022-10-31T00:55:04;1.80;;;1.00;;
34585;SDS011;20816;50.950;11.108;2022-10-31T00:57:30;1.90;;;1.07;;
34585;SDS011;20816;50.950;11.108;2022-10-31T00:59:57;1.20;;;1.10;;
34585;SDS011;20816;50.950;11.108;2022-10-31T01:02:24;1.30;;;1.20;;
34585;SDS011;20816;50.950;11.108;2022-10-31T01:04:50;2.40;;;1.47;;
34585;SDS011;20816;50.950;11.108;2022-10-31T01:07:17;2.47;;;1.37;;
34585;SDS011;20816;50.950;11.108;2022-10-31T01:09:44;4.13;;;1.80;;
34585;SDS011;20816;50.950;11.108;2022-10-31T01:12:10;2.77;;;1.27;;
34585;SDS011;20816;50.950;11.108;2022-10-31T01:14:37;4.97;;;1.20;;
34585;SDS011;20816;50.950;11.108;2022-10-31T01:17:03;4.07;;;1.33;;
34585;SDS011;20816;50.950;11.108;2022-10-31T01:19:30;5.73;;;1.90;;
34585;SDS011;20816;50.950;11.108;2022-10-31T01:21:57;5.70;;;1.23;;
34585;SDS011;20816;50.950;11.108;2022-10-31T01:24:23;2.93;;;1.53;;
34585;SDS011;20816;50.950;11.108;2022-10-31T01:26:50;2.20;;;0.83;;
34585;SDS011;20816;50.950;11.108;2022-10-31T01:29:16;2.00;;;1.00;;
34585;SDS011;20816;50.950;11.108;2022-10-31T01:31:43;3.33;;;1.27;;
34585;SDS011;20816;50.950;11.108;2022-10-31T01:34:14;5.47;;;1.30;;
34585;SDS011;20816;50.950;11.108;2022-10-31T01:36:43;6.00;;;1.50;;
34585;SDS011;20816;50.950;11.108;2022-10-31T01:39:12;3.63;;;1.53;;
34585;SDS011;20816;50.950;11.108;2022-10-31T01:41:44;4.60;;;1.03;;
34585;SDS011;20816;50.950;11.108;2022-10-31T01:49:40;2.30;;;1.27;;
34585;SDS011;20816;50.950;11.108;2022-10-31T01:52:14;4.37;;;1.17;;
34585;SDS011;20816;50.950;11.108;2022-10-31T01:55:47;1.83;;;1.20;;
34585;SDS011;20816;50.950;11.108;2022-10-31T01:57:50;1.60;;;1.03;;
34585;SDS011;20816;50.950;11.108;2022-10-31T02:00:20;4.93;;;1.13;;
34585;SDS011;20816;50.950;11.108;2022-10-31T02:02:48;5.63;;;1.97;;
34585;SDS011;20816;50.950;11.108;2022-10-31T02:05:17;11.97;;;2.70;;
34585;SDS011;20816;50.950;11.108;2022-10-31T02:10:23;3.27;;;1.53;;
34585;SDS011;20816;50.950;11.108;2022-10-31T02:12:55;3.00;;;1.80;;
34585;SDS011;20816;50.950;11.108;2022-10-31T02:15:25;7.57;;;1.60;;
34585;SDS011;20816;50.950;11.108;2022-10-31T02:17:52;2.20;;;1.33;;
34585;SDS011;20816;50.950;11.108;2022-10-31T02:20:20;1.77;;;1.37;;
34585;SDS011;20816;50.950;11.108;2022-10-31T02:25:32;3.40;;;1.40;;
34585;SDS011;20816;50.950;11.108;2022-10-31T02:31:41;2.33;;;1.23;;
34585;SDS011;20816;50.950;11.108;2022-10-31T02:34:19;5.07;;;1.50;;
34585;SDS011;20816;50.950;11.108;2022-10-31T02:37:08;4.03;;;1.13;;
34585;SDS011;20816;50.950;11.108;2022-10-31T02:48:31;2.00;;;1.23;;
34585;SDS011;20816;50.950;11.108;2022-10-31T02:51:02;4.90;;;1.40;;
34585;SDS011;20816;50.950;11.108;2022-10-31T02:53:33;2.87;;;1.67;;
34585;SDS011;20816;50.950;11.108;2022-10-31T02:56:02;6.13;;;1.40;;
34585;SDS011;20816;50.950;11.108;2022-10-31T02:58:33;5.00;;;1.63;;
34585;SDS011;20816;50.950;11.108;2022-10-31T03:06:29;5.53;;;2.23;;
34585;SDS011;20816;50.950;11.108;2022-10-31T03:09:10;6.27;;;1.90;;
34585;SDS011;20816;50.950;11.108;2022-10-31T03:14:31;5.43;;;1.20;;
34585;SDS011;20816;50.950;11.108;2022-10-31T03:17:03;2.60;;;1.10;;
34585;SDS011;20816;50.950;11.108;2022-10-31T03:19:36;4.07;;;1.13;;
34585;SDS011;20816;50.950;11.108;2022-10-31T03:24:38;3.67;;;1.57;;
34585;SDS011;20816;50.950;11.108;2022-10-31T03:27:06;7.13;;;2.07;;
34585;SDS011;20816;50.950;11.108;2022-10-31T03:29:36;2.17;;;1.17;;
34585;SDS011;20816;50.950;11.108;2022-10-31T03:32:07;2.13;;;1.20;;
34585;SDS011;20816;50.950;11.108;2022-10-31T03:34:39;4.53;;;1.73;;
34585;SDS011;20816;50.950;11.108;2022-10-31T03:37:10;10.93;;;2.23;;
34585;SDS011;20816;50.950;11.108;2022-10-31T03:39:40;2.83;;;2.07;;
34585;SDS011;20816;50.950;11.108;2022-10-31T03:42:18;2.77;;;1.40;;
34585;SDS011;20816;50.950;11.108;2022-10-31T03:45:22;4.13;;;2.07;;
34585;SDS011;20816;50.950;11.108;2022-10-31T03:47:45;4.13;;;1.53;;
34585;SDS011;20816;50.950;11.108;2022-10-31T03:50:12;7.17;;;1.53;;
34585;SDS011;20816;50.950;11.108;2022-10-31T03:52:42;3.80;;;1.83;;
34585;SDS011;20816;50.950;11.108;2022-10-31T03:55:18;5.20;;;2.23;;
34585;SDS011;20816;50.950;11.108;2022-10-31T03:57:54;7.47;;;1.73;;
34585;SDS011;20816;50.950;11.108;2022-10-31T04:00:26;1.93;;;1.50;;
34585;SDS011;20816;50.950;11.108;2022-10-31T04:02:55;5.43;;;2.73;;
34585;SDS011;20816;50.950;11.108;2022-10-31T04:05:27;1.83;;;1.50;;
34585;SDS011;20816;50.950;11.108;2022-10-31T04:07:57;3.43;;;1.70;;
34585;SDS011;20816;50.950;11.108;2022-10-31T04:10:26;4.93;;;1.83;;
34585;SDS011;20816;50.950;11.108;2022-10-31T04:13:02;6.53;;;1.93;;
34585;SDS011;20816;50.950;11.108;2022-10-31T04:15:33;2.77;;;1.37;;
34585;SDS011;20816;50.950;11.108;2022-10-31T04:18:03;3.77;;;1.63;;
34585;SDS011;20816;50.950;11.108;2022-10-31T04:20:38;5.93;;;1.40;;
34585;SDS011;20816;50.950;11.108;2022-10-31T04:23:13;8.67;;;1.83;;
34585;SDS011;20816;50.950;11.108;2022-10-31T04:25:42;5.57;;;1.90;;
34585;SDS011;20816;50.950;11.108;2022-10-31T04:28:08;4.90;;;2.17;;
34585;SDS011;20816;50.950;11.108;2022-10-31T04:30:35;9.77;;;1.43;;
34585;SDS011;20816;50.950;11.108;2022-10-31T04:33:02;6.53;;;2.23;;
34585;SDS011;20816;50.950;11.108;2022-10-31T04:35:29;3.73;;;1.40;;
34585;SDS011;20816;50.950;11.108;2022-10-31T04:37:55;2.87;;;1.60;;
34585;SDS011;20816;50.950;11.108;2022-10-31T04:40:22;4.20;;;2.17;;
34585;SDS011;20816;50.950;11.108;2022-10-31T04:42:48;3.13;;;1.37;;
34585;SDS011;20816;50.950;11.108;2022-10-31T04:45:15;6.57;;;1.80;;
34585;SDS011;20816;50.950;11.108;2022-10-31T04:47:46;3.10;;;1.43;;
34585;SDS011;20816;50.950;11.108;2022-10-31T04:50:13;2.33;;;1.40;;
34585;SDS011;20816;50.950;11.108;2022-10-31T04:52:40;9.40;;;2.17;;
34585;SDS011;20816;50.950;11.108;2022-10-31T04:55:11;7.10;;;1.60;;
34585;SDS011;20816;50.950;11.108;2022-10-31T04:57:42;2.40;;;1.57;;
34585;SDS011;20816;50.950;11.108;2022-10-31T05:00:09;5.33;;;1.90;;
34585;SDS011;20816;50.950;11.108;2022-10-31T05:02:42;2.03;;;1.10;;
34585;SDS011;20816;50.950;11.108;2022-10-31T05:05:10;2.87;;;1.97;;
34585;SDS011;20816;50.950;11.108;2022-10-31T05:07:39;2.83;;;1.53;;
34585;SDS011;20816;50.950;11.108;2022-10-31T05:10:08;3.47;;;1.57;;
34585;SDS011;20816;50.950;11.108;2022-10-31T05:12:36;8.10;;;1.63;;
34585;SDS011;20816;50.950;11.108;2022-10-31T05:15:03;2.80;;;1.43;;
34585;SDS011;20816;50.950;11.108;2022-10-31T05:17:31;7.40;;;2.00;;
34585;SDS011;20816;50.950;11.108;2022-10-31T05:19:58;4.50;;;2.27;;
34585;SDS011;20816;50.950;11.108;2022-10-31T05:22:24;18.23;;;2.47;;
34585;SDS011;20816;50.950;11.108;2022-10-31T05:24:51;4.40;;;1.60;;
34585;SDS011;20816;50.950;11.108;2022-10-31T05:27:18;2.97;;;1.57;;
34585;SDS011;20816;50.950;11.108;2022-10-31T05:29:44;2.60;;;1.60;;
34585;SDS011;20816;50.950;11.108;2022-10-31T05:32:11;11.40;;;2.67;;
34585;SDS011;20816;50.950;11.108;2022-10-31T05:34:38;3.77;;;2.17;;
34585;SDS011;20816;50.950;11.108;2022-10-31T05:37:04;3.97;;;1.90;;
34585;SDS011;20816;50.950;11.108;2022-10-31T05:39:31;2.33;;;1.77;;
34585;SDS011;20816;50.950;11.108;2022-10-31T05:41:57;6.03;;;1.43;;
34585;SDS011;20816;50.950;11.108;2022-10-31T05:44:24;4.67;;;1.50;;
34585;SDS011;20816;50.950;11.108;2022-10-31T05:46:51;2.73;;;1.57;;
34585;SDS011;20816;50.950;11.108;2022-10-31T05:49:17;2.63;;;1.27;;
34585;SDS011;20816;50.950;11.108;2022-10-31T05:51:44;4.33;;;1.90;;
34585;SDS011;20816;50.950;11.108;2022-10-31T05:54:11;7.57;;;1.70;;
34585;SDS011;20816;50.950;11.108;2022-10-31T05:56:41;2.40;;;1.37;;
34585;SDS011;20816;50.950;11.108;2022-10-31T05:59:07;5.70;;;1.87;;
34585;SDS011;20816;50.950;11.108;2022-10-31T06:01:34;3.97;;;1.20;;
34585;SDS011;20816;50.950;11.108;2022-10-31T06:04:01;4.70;;;1.40;;
34585;SDS011;20816;50.950;11.108;2022-10-31T06:06:27;3.47;;;2.47;;
34585;SDS011;20816;50.950;11.108;2022-10-31T06:08:54;20.50;;;4.00;;
34585;SDS011;20816;50.950;11.108;2022-10-31T06:11:21;2.87;;;1.87;;
34585;SDS011;20816;50.950;11.108;2022-10-31T06:13:47;6.40;;;1.80;;
34585;SDS011;20816;50.950;11.108;2022-10-31T06:16:14;5.70;;;1.93;;
34585;SDS011;20816;50.950;11.108;2022-10-31T06:18:41;4.33;;;1.70;;
34585;SDS011;20816;50.950;11.108;2022-10-31T06:21:07;3.13;;;1.83;;
34585;SDS011;20816;50.950;11.108;2022-10-31T06:23:35;4.77;;;1.70;;
34585;SDS011;20816;50.950;11.108;2022-10-31T06:26:02;4.13;;;1.93;;
34585;SDS011;20816;50.950;11.108;2022-10-31T06:28:29;1.60;;;1.30;;
34585;SDS011;20816;50.950;11.108;2022-10-31T06:30:55;5.40;;;1.97;;
34585;SDS011;20816;50.950;11.108;2022-10-31T06:33:22;4.83;;;2.27;;
34585;SDS011;20816;50.950;11.108;2022-10-31T06:35:49;8.00;;;2.83;;
34585;SDS011;20816;50.950;11.108;2022-10-31T06:38:15;3.27;;;2.30;;
34585;SDS011;20816;50.950;11.108;2022-10-31T06:40:42;4.40;;;1.90;;
34585;SDS011;20816;50.950;11.108;2022-10-31T06:43:09;3.03;;;1.77;;
34585;SDS011;20816;50.950;11.108;2022-10-31T06:45:37;4.70;;;2.33;;
34585;SDS011;20816;50.950;11.108;2022-10-31T06:48:04;2.87;;;1.70;;
34585;SDS011;20816;50.950;11.108;2022-10-31T06:50:47;12.77;;;1.80;;
34585;SDS011;20816;50.950;11.108;2022-10-31T06:53:13;3.70;;;1.90;;
34585;SDS011;20816;50.950;11.108;2022-10-31T06:55:40;4.47;;;2.00;;
34585;SDS011;20816;50.950;11.108;2022-10-31T06:58:08;4.33;;;2.47;;
34585;SDS011;20816;50.950;11.108;2022-10-31T07:00:36;4.00;;;2.57;;
34585;SDS011;20816;50.950;11.108;2022-10-31T07:03:08;6.30;;;2.07;;
34585;SDS011;20816;50.950;11.108;2022-10-31T07:05:37;5.10;;;2.30;;
34585;SDS011;20816;50.950;11.108;2022-10-31T07:08:05;3.20;;;1.67;;
34585;SDS011;20816;50.950;11.108;2022-10-31T07:10:36;5.73;;;3.40;;
34585;SDS011;20816;50.950;11.108;2022-10-31T07:13:08;8.93;;;2.00;;
34585;SDS011;20816;50.950;11.108;2022-10-31T07:15:37;3.40;;;1.60;;
34585;SDS011;20816;50.950;11.108;2022-10-31T07:18:05;3.73;;;2.03;;
34585;SDS011;20816;50.950;11.108;2022-10-31T07:20:34;6.87;;;2.07;;
34585;SDS011;20816;50.950;11.108;2022-10-31T07:23:01;3.60;;;2.27;;
34585;SDS011;20816;50.950;11.108;2022-10-31T07:25:28;3.50;;;1.77;;
34585;SDS011;20816;50.950;11.108;2022-10-31T07:27:55;1.53;;;1.30;;
34585;SDS011;20816;50.950;11.108;2022-10-31T07:30:22;6.73;;;2.00;;
34585;SDS011;20816;50.950;11.108;2022-10-31T07:32:49;4.50;;;1.80;;
34585;SDS011;20816;50.950;11.108;2022-10-31T07:35:18;1.97;;;1.50;;
34585;SDS011;20816;50.950;11.108;2022-10-31T07:37:49;2.83;;;1.53;;
34585;SDS011;20816;50.950;11.108;2022-10-31T07:40:17;4.30;;;2.33;;
34585;SDS011;20816;50.950;11.108;2022-10-31T07:42:46;4.00;;;1.97;;
34585;SDS011;20816;50.950;11.108;2022-10-31T07:45:14;5.30;;;2.20;;
34585;SDS011;20816;50.950;11.108;2022-10-31T07:50:12;2.33;;;1.50;;
34585;SDS011;20816;50.950;11.108;2022-10-31T07:52:40;4.17;;;2.37;;
34585;SDS011;20816;50.950;11.108;2022-10-31T07:55:07;4.53;;;1.90;;
34585;SDS011;20816;50.950;11.108;2022-10-31T07:57:34;4.63;;;1.70;;
34585;SDS011;20816;50.950;11.108;2022-10-31T08:00:01;2.37;;;1.43;;
34585;SDS011;20816;50.950;11.108;2022-10-31T08:02:27;4.93;;;1.50;;
34585;SDS011;20816;50.950;11.108;2022-10-31T08:04:54;2.37;;;1.57;;
34585;SDS011;20816;50.950;11.108;2022-10-31T08:07:26;3.43;;;2.77;;
34585;SDS011;20816;50.950;11.108;2022-10-31T08:09:53;5.30;;;1.67;;
34585;SDS011;20816;50.950;11.108;2022-10-31T08:12:20;2.77;;;1.50;;
34585;SDS011;20816;50.950;11.108;2022-10-31T08:14:47;3.63;;;1.85;;
34585;SDS011;20816;50.950;11.108;2022-10-31T08:17:13;3.10;;;1.58;;
34585;SDS011;20816;50.950;11.108;2022-10-31T08:19:40;2.97;;;1.67;;
34585;SDS011;20816;50.950;11.108;2022-10-31T08:22:07;3.00;;;1.63;;
34585;SDS011;20816;50.950;11.108;2022-10-31T08:24:34;2.72;;;1.50;;
34585;SDS011;20816;50.950;11.108;2022-10-31T08:27:00;4.13;;;2.15;;
34585;SDS011;20816;50.950;11.108;2022-10-31T08:29:27;4.82;;;1.73;;
34585;SDS011;20816;50.950;11.108;2022-10-31T08:31:54;4.90;;;2.58;;
34585;SDS011;20816;50.950;11.108;2022-10-31T08:34:20;3.28;;;2.38;;
34585;SDS011;20816;50.950;11.108;2022-10-31T08:36:47;5.97;;;2.25;;
34585;SDS011;20816;50.950;11.108;2022-10-31T08:39:13;3.33;;;1.45;;
34585;SDS011;20816;50.950;11.108;2022-10-31T08:41:40;12.45;;;2.20;;
34585;SDS011;20816;50.950;11.108;2022-10-31T08:44:07;4.05;;;2.92;;
34585;SDS011;20816;50.950;11.108;2022-10-31T08:46:33;9.10;;;2.05;;
34585;SDS011;20816;50.950;11.108;2022-10-31T08:49:00;6.45;;;2.50;;
34585;SDS011;20816;50.950;11.108;2022-10-31T08:51:27;5.50;;;1.25;;
34585;SDS011;20816;50.950;11.108;2022-10-31T08:53:53;7.45;;;1.60;;
34585;SDS011;20816;50.950;11.108;2022-10-31T08:56:20;8.55;;;2.13;;
34585;SDS011;20816;50.950;11.108;2022-10-31T08:58:48;8.65;;;2.10;;
34585;SDS011;20816;50.950;11.108;2022-10-31T09:01:15;7.30;;;1.90;;
34585;SDS011;20816;50.950;11.108;2022-10-31T09:03:42;2.05;;;1.85;;
34585;SDS011;20816;50.950;11.108;2022-10-31T09:06:08;2.22;;;1.70;;
34585;SDS011;20816;50.950;11.108;2022-10-31T09:08:35;3.70;;;1.88;;
34585;SDS011;20816;50.950;11.108;2022-10-31T09:11:02;4.10;;;1.92;;
34585;SDS011;20816;50.950;11.108;2022-10-31T09:13:30;4.28;;;2.20;;
34585;SDS011;20816;50.950;11.108;2022-10-31T09:15:56;1.98;;;1.67;;
34585;SDS011;20816;50.950;11.108;2022-10-31T09:18:25;4.47;;;1.67;;
34585;SDS011;20816;50.950;11.108;2022-10-31T09:20:54;4.80;;;1.80;;
34585;SDS011;20816;50.950;11.108;2022-10-31T09:23:24;6.00;;;2.22;;
34585;SDS011;20816;50.950;11.108;2022-10-31T09:25:51;6.38;;;1.90;;
34585;SDS011;20816;50.950;11.108;2022-10-31T09:28:20;6.53;;;2.35;;
34585;SDS011;20816;50.950;11.108;2022-10-31T09:30:49;5.03;;;2.05;;
34585;SDS011;20816;50.950;11.108;2022-10-31T09:33:18;3.45;;;1.65;;
34585;SDS011;20816;50.950;11.108;2022-10-31T09:35:45;4.82;;;2.25;;
34585;SDS011;20816;50.950;11.108;2022-10-31T09:38:12;4.85;;;1.75;;
34585;SDS011;20816;50.950;11.108;2022-10-31T09:51:50;4.07;;;1.88;;
34585;SDS011;20816;50.950;11.108;2022-10-31T09:54:32;2.67;;;1.80;;
34585;SDS011;20816;50.950;11.108;2022-10-31T09:57:04;11.85;;;3.00;;
34585;SDS011;20816;50.950;11.108;2022-10-31T09:59:38;2.65;;;2.03;;
34585;SDS011;20816;50.950;11.108;2022-10-31T10:10:30;4.30;;;2.58;;
34585;SDS011;20816;50.950;11.108;2022-10-31T10:13:20;4.07;;;2.25;;
34585;SDS011;20816;50.950;11.108;2022-10-31T10:16:24;5.25;;;2.15;;
34585;SDS011;20816;50.950;11.108;2022-10-31T10:30:26;2.70;;;1.92;;
34585;SDS011;20816;50.950;11.108;2022-10-31T10:33:09;6.05;;;2.58;;
34585;SDS011;20816;50.950;11.108;2022-10-31T10:38:15;3.97;;;2.20;;
34585;SDS011;20816;50.950;11.108;2022-10-31T10:40:42;3.47;;;2.13;;
34585;SDS011;20816;50.950;11.108;2022-10-31T10:43:18;3.70;;;2.00;;
34585;SDS011;20816;50.950;11.108;2022-10-31T10:45:50;3.92;;;2.75;;
34585;SDS011;20816;50.950;11.108;2022-10-31T10:48:50;3.90;;;2.25;;
34585;SDS011;20816;50.950;11.108;2022-10-31T10:51:22;8.05;;;2.95;;
34585;SDS011;20816;50.950;11.108;2022-10-31T10:56:51;3.88;;;2.45;;
34585;SDS011;20816;50.950;11.108;2022-10-31T10:59:22;7.78;;;2.97;;
34585;SDS011;20816;50.950;11.108;2022-10-31T11:01:50;2.53;;;2.33;;
34585;SDS011;20816;50.950;11.108;2022-10-31T11:04:31;8.63;;;2.53;;
34585;SDS011;20816;50.950;11.108;2022-10-31T11:07:07;4.35;;;2.67;;
34585;SDS011;20816;50.950;11.108;2022-10-31T11:09:36;4.38;;;2.30;;
34585;SDS011;20816;50.950;11.108;2022-10-31T11:12:07;3.65;;;2.13;;
34585;SDS011;20816;50.950;11.108;2022-10-31T11:14:42;6.55;;;3.08;;
34585;SDS011;20816;50.950;11.108;2022-10-31T11:17:22;4.63;;;2.10;;
34585;SDS011;20816;50.950;11.108;2022-10-31T11:22:30;2.15;;;1.77;;
34585;SDS011;20816;50.950;11.108;2022-10-31T11:24:57;9.35;;;3.00;;
34585;SDS011;20816;50.950;11.108;2022-10-31T11:27:24;10.48;;;2.95;;
34585;SDS011;20816;50.950;11.108;2022-10-31T11:29:51;5.00;;;2.15;;
34585;SDS011;20816;50.950;11.108;2022-10-31T11:32:26;4.82;;;2.30;;
34585;SDS011;20816;50.950;11.108;2022-10-31T11:34:54;7.55;;;2.40;;
34585;SDS011;20816;50.950;11.108;2022-10-31T11:37:29;5.93;;;2.17;;
34585;SDS011;20816;50.950;11.108;2022-10-31T11:39:59;4.50;;;2.30;;
34585;SDS011;20816;50.950;11.108;2022-10-31T11:42:30;3.75;;;1.83;;
34585;SDS011;20816;50.950;11.108;2022-10-31T11:45:06;6.35;;;2.15;;
34585;SDS011;20816;50.950;11.108;2022-10-31T11:47:54;4.15;;;2.13;;
34585;SDS011;20816;50.950;11.108;2022-10-31T11:50:33;5.30;;;2.83;;
34585;SDS011;20816;50.950;11.108;2022-10-31T11:53:12;3.65;;;2.33;;
34585;SDS011;20816;50.950;11.108;2022-10-31T11:55:42;6.47;;;2.78;;
34585;SDS011;20816;50.950;11.108;2022-10-31T11:58:22;2.35;;;1.73;;
34585;SDS011;20816;50.950;11.108;2022-10-31T12:00:53;3.88;;;2.20;;
34585;SDS011;20816;50.950;11.108;2022-10-31T12:03:30;4.07;;;2.15;;
34585;SDS011;20816;50.950;11.108;2022-10-31T12:06:07;4.97;;;2.38;;
34585;SDS011;20816;50.950;11.108;2022-10-31T12:08:35;9.05;;;2.72;;
34585;SDS011;20816;50.950;11.108;2022-10-31T12:13:52;5.43;;;2.67;;
34585;SDS011;20816;50.950;11.108;2022-10-31T12:19:21;6.53;;;2.45;;
34585;SDS011;20816;50.950;11.108;2022-10-31T12:22:05;8.77;;;2.92;;
34585;SDS011;20816;50.950;11.108;2022-10-31T12:29:59;5.03;;;2.97;;
34585;SDS011;20816;50.950;11.108;2022-10-31T12:59:44;8.40;;;3.45;;
34585;SDS011;20816;50.950;11.108;2022-10-31T13:04:49;2.97;;;2.67;;
34585;SDS011;20816;50.950;11.108;2022-10-31T13:07:33;3.80;;;2.65;;
34585;SDS011;20816;50.950;11.108;2022-10-31T13:10:10;3.63;;;2.30;;
34585;SDS011;20816;50.950;11.108;2022-10-31T13:12:40;11.13;;;3.63;;
34585;SDS011;20816;50.950;11.108;2022-10-31T13:15:12;4.22;;;3.42;;
34585;SDS011;20816;50.950;11.108;2022-10-31T13:18:04;9.50;;;2.92;;
34585;SDS011;20816;50.950;11.108;2022-10-31T13:20:38;5.57;;;2.80;;
34585;SDS011;20816;50.950;11.108;2022-10-31T13:25:59;4.05;;;2.42;;
34585;SDS011;20816;50.950;11.108;2022-10-31T13:28:37;14.10;;;2.92;;
34585;SDS011;20816;50.950;11.108;2022-10-31T13:31:11;4.15;;;2.40;;
34585;SDS011;20816;50.950;11.108;2022-10-31T13:33:40;4.50;;;2.05;;
34585;SDS011;20816;50.950;11.108;2022-10-31T13:36:28;7.95;;;1.83;;
34585;SDS011;20816;50.950;11.108;2022-10-31T13:42:10;10.00;;;2.78;;
34585;SDS011;20816;50.950;11.108;2022-10-31T13:45:06;3.53;;;2.13;;
34585;SDS011;20816;50.950;11.108;2022-10-31T13:47:54;3.35;;;2.60;;
34585;SDS011;20816;50.950;11.108;2022-10-31T13:50:23;2.78;;;2.03;;
34585;SDS011;20816;50.950;11.108;2022-10-31T13:52:51;4.57;;;2.17;;
34585;SDS011;20816;50.950;11.108;2022-10-31T13:58:19;4.03;;;1.75;;
34585;SDS011;20816;50.950;11.108;2022-10-31T14:00:46;5.43;;;2.38;;
34585;SDS011;20816;50.950;11.108;2022-10-31T14:03:23;6.00;;;2.38;;
34585;SDS011;20816;50.950;11.108;2022-10-31T14:06:11;4.68;;;2.40;;
34585;SDS011;20816;50.950;11.108;2022-10-31T14:08:46;3.78;;;2.38;;
34585;SDS011;20816;50.950;11.108;2022-10-31T14:11:22;3.90;;;1.95;;
34585;SDS011;20816;50.950;11.108;2022-10-31T14:14:01;6.60;;;1.73;;
34585;SDS011;20816;50.950;11.108;2022-10-31T14:16:31;5.40;;;2.20;;
34585;SDS011;20816;50.950;11.108;2022-10-31T14:19:05;6.28;;;2.55;;
34585;SDS011;20816;50.950;11.108;2022-10-31T14:21:42;4.57;;;2.20;;
34585;SDS011;20816;50.950;11.108;2022-10-31T14:26:54;10.02;;;2.65;;
34585;SDS011;20816;50.950;11.108;2022-10-31T14:29:32;11.38;;;3.30;;
34585;SDS011;20816;50.950;11.108;2022-10-31T14:32:06;2.88;;;1.98;;
34585;SDS011;20816;50.950;11.108;2022-10-31T14:34:52;7.80;;;2.40;;
34585;SDS011;20816;50.950;11.108;2022-10-31T14:46:02;4.50;;;2.53;;
34585;SDS011;20816;50.950;11.108;2022-10-31T14:51:20;7.93;;;2.17;;
34585;SDS011;20816;50.950;11.108;2022-10-31T14:53:55;3.42;;;2.05;;
34585;SDS011;20816;50.950;11.108;2022-10-31T14:56:27;4.35;;;2.53;;
34585;SDS011;20816;50.950;11.108;2022-10-31T14:59:06;6.95;;;2.33;;
34585;SDS011;20816;50.950;11.108;2022-10-31T15:01:38;3.47;;;2.08;;
34585;SDS011;20816;50.950;11.108;2022-10-31T15:04:13;10.25;;;3.22;;
34585;SDS011;20816;50.950;11.108;2022-10-31T15:06:51;7.60;;;2.45;;
34585;SDS011;20816;50.950;11.108;2022-10-31T15:09:42;6.97;;;2.72;;
34585;SDS011;20816;50.950;11.108;2022-10-31T15:14:48;4.35;;;2.63;;
34585;SDS011;20816;50.950;11.108;2022-10-31T15:17:15;3.75;;;2.40;;
34585;SDS011;20816;50.950;11.108;2022-10-31T15:19:42;7.53;;;3.05;;
34585;SDS011;20816;50.950;11.108;2022-10-31T15:22:10;4.75;;;3.15;;
34585;SDS011;20816;50.950;11.108;2022-10-31T15:24:42;4.03;;;2.35;;
34585;SDS011;20816;50.950;11.108;2022-10-31T15:27:14;3.80;;;2.22;;
34585;SDS011;20816;50.950;11.108;2022-10-31T15:29:49;10.55;;;2.92;;
34585;SDS011;20816;50.950;11.108;2022-10-31T15:32:24;7.32;;;3.60;;
34585;SDS011;20816;50.950;11.108;2022-10-31T15:34:53;6.90;;;2.20;;
34585;SDS011;20816;50.950;11.108;2022-10-31T15:37:22;6.68;;;3.50;;
34585;SDS011;20816;50.950;11.108;2022-10-31T15:39:51;5.18;;;3.15;;
34585;SDS011;20816;50.950;11.108;2022-10-31T15:45:02;7.55;;;3.67;;
34585;SDS011;20816;50.950;11.108;2022-10-31T15:47:47;10.55;;;4.22;;
34585;SDS011;20816;50.950;11.108;2022-10-31T15:50:21;12.40;;;5.47;;
34585;SDS011;20816;50.950;11.108;2022-10-31T15:56:20;6.90;;;4.20;;
34585;SDS011;20816;50.950;11.108;2022-10-31T15:58:50;7.90;;;4.10;;
34585;SDS011;20816;50.950;11.108;2022-10-31T16:01:23;10.45;;;4.45;;
34585;SDS011;20816;50.950;11.108;2022-10-31T16:04:04;8.27;;;4.18;;
34585;SDS011;20816;50.950;11.108;2022-10-31T16:06:51;9.60;;;4.47;;
34585;SDS011;20816;50.950;11.108;2022-10-31T16:09:24;6.35;;;3.53;;
34585;SDS011;20816;50.950;11.108;2022-10-31T16:11:51;7.43;;;3.90;;
34585;SDS011;20816;50.950;11.108;2022-10-31T16:14:18;5.68;;;3.58;;
34585;SDS011;20816;50.950;11.108;2022-10-31T16:16:55;7.82;;;3.22;;
34585;SDS011;20816;50.950;11.108;2022-10-31T16:19:25;6.90;;;3.35;;
34585;SDS011;20816;50.950;11.108;2022-10-31T16:22:03;8.00;;;3.28;;
34585;SDS011;20816;50.950;11.108;2022-10-31T16:24:44;7.30;;;3.58;;
34585;SDS011;20816;50.950;11.108;2022-10-31T16:27:21;5.05;;;2.70;;
34585;SDS011;20816;50.950;11.108;2022-10-31T16:29:53;4.65;;;2.33;;
34585;SDS011;20816;50.950;11.108;2022-10-31T16:32:27;5.35;;;3.00;;
34585;SDS011;20816;50.950;11.108;2022-10-31T16:37:39;4.85;;;2.60;;
34585;SDS011;20816;50.950;11.108;2022-10-31T16:40:07;3.15;;;2.42;;
34585;SDS011;20816;50.950;11.108;2022-10-31T16:42:36;7.90;;;2.83;;
34585;SDS011;20816;50.950;11.108;2022-10-31T16:45:04;7.85;;;2.90;;
34585;SDS011;20816;50.950;11.108;2022-10-31T16:47:31;5.25;;;3.00;;
34585;SDS011;20816;50.950;11.108;2022-10-31T16:49:58;6.68;;;3.03;;
34585;SDS011;20816;50.950;11.108;2022-10-31T16:52:26;6.88;;;3.08;;
34585;SDS011;20816;50.950;11.108;2022-10-31T16:55:03;4.88;;;2.53;;
34585;SDS011;20816;50.950;11.108;2022-10-31T16:57:30;4.78;;;2.83;;
34585;SDS011;20816;50.950;11.108;2022-10-31T16:59:57;5.03;;;2.92;;
34585;SDS011;20816;50.950;11.108;2022-10-31T17:02:24;6.00;;;3.45;;
34585;SDS011;20816;50.950;11.108;2022-10-31T17:04:51;5.70;;;3.33;;
34585;SDS011;20816;50.950;11.108;2022-10-31T17:07:22;9.48;;;3.05;;
34585;SDS011;20816;50.950;11.108;2022-10-31T17:09:48;7.88;;;3.50;;
34585;SDS011;20816;50.950;11.108;2022-10-31T17:12:17;6.78;;;2.50;;
34585;SDS011;20816;50.950;11.108;2022-10-31T17:14:47;7.05;;;3.65;;
34585;SDS011;20816;50.950;11.108;2022-10-31T17:17:17;7.38;;;3.13;;
34585;SDS011;20816;50.950;11.108;2022-10-31T17:19:43;5.85;;;3.17;;
34585;SDS011;20816;50.950;11.108;2022-10-31T17:22:10;6.90;;;2.80;;
34585;SDS011;20816;50.950;11.108;2022-10-31T17:24:38;5.93;;;3.40;;